createdAt,value
2018-01-18T00:00:39.867Z,11.70
2018-01-18T00:03:07.827Z,14.48
2018-01-18T00:05:35.730Z,10.07
2018-01-18T00:08:03.924Z,8.98
2018-01-18T00:10:31.854Z,15.27
2018-01-18T00:12:59.825Z,10.52
2018-01-18T00:15:27.733Z,10.73
2018-01-18T00:17:55.684Z,17.23
2018-01-18T00:20:23.589Z,9.82
2018-01-18T00:22:51.484Z,15.30
2018-01-18T00:25:19.446Z,9.48
2018-01-18T00:27:47.340Z,10.40
2018-01-18T00:30:16.074Z,13.95
2018-01-18T00:32:43.994Z,18.55
2018-01-18T00:35:12.730Z,15.48
2018-01-18T00:37:40.759Z,14.77
2018-01-18T00:40:09.475Z,19.08
2018-01-18T00:42:37.356Z,13.82
2018-01-18T00:45:05.305Z,15.15
2018-01-18T00:47:33.179Z,8.55
2018-01-18T00:50:01.113Z,15.65
2018-01-18T00:52:29.793Z,13.85
2018-01-18T00:54:57.725Z,8.40
2018-01-18T00:57:25.629Z,8.30
2018-01-18T00:59:53.584Z,9.10
2018-01-18T01:02:21.457Z,10.50
2018-01-18T01:04:49.404Z,7.60
2018-01-18T01:07:17.327Z,6.35
2018-01-18T01:09:46.037Z,10.30
2018-01-18T01:12:13.933Z,10.55
2018-01-18T01:14:41.868Z,5.70
2018-01-18T01:17:09.755Z,14.05
2018-01-18T01:19:37.704Z,11.68
2018-01-18T01:22:05.597Z,11.30
2018-01-18T01:24:33.526Z,7.68
2018-01-18T01:27:02.191Z,14.68
2018-01-18T01:29:30.162Z,9.57
2018-01-18T01:31:58.044Z,8.93
2018-01-18T01:34:26.754Z,13.18
2018-01-18T01:36:54.840Z,8.25
2018-01-18T01:39:22.760Z,6.90
2018-01-18T01:41:50.718Z,10.63
2018-01-18T01:44:18.631Z,4.78
2018-01-18T01:46:46.564Z,9.93
2018-01-18T01:49:14.445Z,7.07
2018-01-18T01:51:42.415Z,9.13
2018-01-18T01:54:10.348Z,17.27
2018-01-18T01:56:38.277Z,11.35
2018-01-18T01:59:06.240Z,8.82
2018-01-18T02:01:34.223Z,13.35
2018-01-18T02:04:02.121Z,11.80
2018-01-18T02:06:32.025Z,9.73
2018-01-18T02:08:59.918Z,9.80
2018-01-18T02:11:27.860Z,15.60
2018-01-18T02:13:55.749Z,15.30
2018-01-18T02:16:23.686Z,13.75
2018-01-18T02:18:51.627Z,10.90
2018-01-18T02:21:19.584Z,10.48
2018-01-18T02:23:47.471Z,11.73
2018-01-18T02:26:15.418Z,8.70
2018-01-18T02:28:43.292Z,8.48
2018-01-18T02:31:11.217Z,14.68
2018-01-18T02:33:39.124Z,9.60
2018-01-18T02:36:08.279Z,8.80
2018-01-18T02:38:36.227Z,8.90
2018-01-18T02:41:04.187Z,6.30
2018-01-18T02:43:32.836Z,4.20
2018-01-18T02:46:00.719Z,8.18
2018-01-18T02:48:28.697Z,6.62
2018-01-18T02:50:56.577Z,5.20
2018-01-18T02:53:25.282Z,7.12
2018-01-18T02:55:53.185Z,6.78
2018-01-18T02:58:21.132Z,7.65
2018-01-18T03:00:49.049Z,7.07
2018-01-18T03:03:16.977Z,5.47
2018-01-18T03:05:44.922Z,9.48
2018-01-18T03:08:12.884Z,7.12
2018-01-18T03:10:40.777Z,4.47
2018-01-18T03:13:08.719Z,3.35
2018-01-18T03:15:37.380Z,7.10
2018-01-18T03:18:05.497Z,7.57
2018-01-18T03:20:33.388Z,3.80
2018-01-18T03:23:01.338Z,6.32
2018-01-18T03:25:29.221Z,5.00
2018-01-18T03:27:57.238Z,6.00
2018-01-18T03:30:25.150Z,6.72
2018-01-18T03:32:53.080Z,4.18
2018-01-18T03:35:20.996Z,5.65
2018-01-18T03:37:49.196Z,5.20
2018-01-18T03:40:17.110Z,5.85
2018-01-18T03:42:45.039Z,7.85
2018-01-18T03:45:12.973Z,3.60
2018-01-18T03:47:40.868Z,3.05
2018-01-18T03:50:08.808Z,9.43
2018-01-18T03:52:36.729Z,5.07
2018-01-18T03:55:04.711Z,3.60
2018-01-18T03:57:36.779Z,4.25
2018-01-18T04:00:04.753Z,6.45
2018-01-18T04:02:32.646Z,2.70
2018-01-18T04:05:00.613Z,4.37
2018-01-18T04:07:28.525Z,6.10
2018-01-18T04:09:56.575Z,4.45
2018-01-18T04:12:24.460Z,6.75
2018-01-18T04:14:52.412Z,8.15
2018-01-18T04:17:20.307Z,9.15
2018-01-18T04:19:48.274Z,7.28
2018-01-18T04:22:16.193Z,7.90
2018-01-18T04:24:44.942Z,4.80
2018-01-18T04:27:16.486Z,5.00
2018-01-18T04:29:44.490Z,9.02
2018-01-18T04:32:13.178Z,14.80
2018-01-18T04:34:41.921Z,5.03
2018-01-18T04:37:09.852Z,3.90
2018-01-18T04:39:37.804Z,3.90
2018-01-18T04:42:05.696Z,4.53
2018-01-18T04:44:33.650Z,5.82
2018-01-18T04:47:01.536Z,6.00
2018-01-18T04:49:29.471Z,7.53
2018-01-18T04:51:57.410Z,4.25
2018-01-18T04:54:25.308Z,1.50
2018-01-18T04:56:53.333Z,4.90
2018-01-18T04:59:21.244Z,2.87
2018-01-18T05:01:49.199Z,1.02
2018-01-18T05:04:17.093Z,2.28
2018-01-18T05:06:45.044Z,2.65
2018-01-18T05:09:12.942Z,1.67
2018-01-18T05:11:41.656Z,1.73
2018-01-18T05:14:09.656Z,1.58
2018-01-18T05:16:40.990Z,2.87
2018-01-18T05:19:12.182Z,2.10
2018-01-18T05:21:40.767Z,1.95
2018-01-18T05:24:09.592Z,0.60
2018-01-18T05:26:38.619Z,2.35
2018-01-18T05:29:07.532Z,3.90
2018-01-18T05:31:36.540Z,1.50
2018-01-18T05:34:05.398Z,0.73
2018-01-18T05:36:34.636Z,0.90
2018-01-18T05:39:03.695Z,0.80
2018-01-18T05:41:31.777Z,1.62
2018-01-18T05:43:59.697Z,0.70
2018-01-18T05:46:27.611Z,1.67
2018-01-18T05:48:55.608Z,2.60
2018-01-18T05:51:23.545Z,0.40
2018-01-18T05:53:51.500Z,1.70
2018-01-18T05:56:20.286Z,2.47
2018-01-18T05:58:51.338Z,0.82
2018-01-18T06:01:22.944Z,0.80
2018-01-18T06:03:54.879Z,0.85
2018-01-18T06:06:26.855Z,0.60
2018-01-18T06:08:58.382Z,0.30
2018-01-18T06:11:30.171Z,0.50
2018-01-18T06:14:02.508Z,0.40
2018-01-18T06:16:34.180Z,1.30
2018-01-18T06:19:05.852Z,0.40
2018-01-18T06:21:37.416Z,0.40
2018-01-18T06:24:09.852Z,0.60
2018-01-18T06:26:37.926Z,0.40
2018-01-18T06:29:05.852Z,0.70
2018-01-18T06:31:34.495Z,0.40
2018-01-18T06:34:02.438Z,0.40
2018-01-18T06:36:30.318Z,0.60
2018-01-18T06:38:58.259Z,0.40
2018-01-18T06:41:26.138Z,0.93
2018-01-18T06:43:54.076Z,0.80
2018-01-18T06:46:21.956Z,0.90
2018-01-18T06:48:49.875Z,0.68
2018-01-18T06:51:17.767Z,0.60
2018-01-18T06:53:45.723Z,1.25
2018-01-18T06:56:13.604Z,0.45
2018-01-18T06:58:41.546Z,1.30
2018-01-18T07:01:09.412Z,0.40
2018-01-18T07:03:37.350Z,0.40
2018-01-18T07:06:05.228Z,2.78
2018-01-18T07:08:33.148Z,0.40
2018-01-18T07:11:01.026Z,0.40
2018-01-18T07:13:28.951Z,0.40
2018-01-18T07:15:56.832Z,0.40
2018-01-18T07:18:24.761Z,0.60
2018-01-18T07:20:52.653Z,0.40
2018-01-18T07:23:20.527Z,0.43
2018-01-18T07:25:48.466Z,0.70
2018-01-18T07:28:16.340Z,3.42
2018-01-18T07:30:44.278Z,0.40
2018-01-18T07:33:12.170Z,0.70
2018-01-18T07:35:40.110Z,0.60
2018-01-18T07:38:08.033Z,0.47
2018-01-18T07:40:35.962Z,0.50
2018-01-18T07:43:04.616Z,0.73
2018-01-18T07:45:32.611Z,1.85
2018-01-18T07:48:00.679Z,0.40
2018-01-18T07:50:28.619Z,0.65
2018-01-18T07:52:56.501Z,0.50
2018-01-18T07:55:24.430Z,0.40
2018-01-18T07:57:52.318Z,0.80
2018-01-18T08:00:20.251Z,0.50
2018-01-18T08:02:53.638Z,0.50
2018-01-18T08:05:22.333Z,0.50
2018-01-18T08:07:50.222Z,0.85
2018-01-18T08:10:18.155Z,0.50
2018-01-18T08:12:46.037Z,0.52
2018-01-18T08:15:13.983Z,0.62
2018-01-18T08:17:42.130Z,0.60
2018-01-18T08:20:10.101Z,0.80
2018-01-18T08:22:38.011Z,0.93
2018-01-18T08:25:06.753Z,1.35
2018-01-18T08:27:34.721Z,0.50
2018-01-18T08:30:02.604Z,2.03
2018-01-18T08:32:30.558Z,0.88
2018-01-18T08:34:58.451Z,0.50
2018-01-18T08:37:26.507Z,3.65
2018-01-18T08:39:54.415Z,0.50
2018-01-18T08:42:22.380Z,1.00
2018-01-18T08:44:51.023Z,0.52
2018-01-18T08:47:18.957Z,1.58
2018-01-18T08:49:46.887Z,1.70
2018-01-18T08:52:14.850Z,2.17
2018-01-18T08:54:42.737Z,1.25
2018-01-18T08:57:10.699Z,1.98
2018-01-18T08:59:38.590Z,1.15
2018-01-18T09:02:06.546Z,1.40
2018-01-18T09:04:34.448Z,0.70
2018-01-18T09:07:06.729Z,0.70
2018-01-18T09:09:34.632Z,1.65
2018-01-18T09:12:02.576Z,0.50
2018-01-18T09:14:30.471Z,0.85
2018-01-18T09:16:58.641Z,2.87
2018-01-18T09:19:26.533Z,1.37
2018-01-18T09:21:54.464Z,3.10
2018-01-18T09:24:22.335Z,1.05
2018-01-18T09:26:50.644Z,0.75
2018-01-18T09:29:18.586Z,1.17
2018-01-18T09:31:46.516Z,1.35
2018-01-18T09:34:14.439Z,1.25
2018-01-18T09:36:44.591Z,1.73
2018-01-18T09:39:12.521Z,7.12
2018-01-18T09:41:40.411Z,1.58
2018-01-18T09:44:10.712Z,2.72
2018-01-18T09:46:39.598Z,3.58
2018-01-18T09:49:07.497Z,2.90
2018-01-18T09:51:35.381Z,2.65
2018-01-18T09:54:04.117Z,3.90
2018-01-18T09:56:32.212Z,3.12
2018-01-18T09:59:00.535Z,7.32
2018-01-18T10:01:28.574Z,5.62
2018-01-18T10:03:58.430Z,6.95
2018-01-18T10:06:28.451Z,11.15
2018-01-18T10:08:58.569Z,14.23
2018-01-18T10:11:26.546Z,12.25
2018-01-18T10:13:54.534Z,13.62
2018-01-18T10:16:22.597Z,10.70
2018-01-18T10:18:50.583Z,12.35
2018-01-18T10:21:18.554Z,6.00
2018-01-18T10:23:47.278Z,11.82
2018-01-18T10:26:19.206Z,12.40
2018-01-18T10:28:47.209Z,7.55
2018-01-18T10:31:15.248Z,12.82
2018-01-18T10:33:43.259Z,6.57
2018-01-18T10:36:12.040Z,14.93
2018-01-18T10:38:40.039Z,9.40
2018-01-18T10:41:07.922Z,13.00
2018-01-18T10:43:35.855Z,13.93
2018-01-18T10:46:04.552Z,10.40
2018-01-18T10:48:32.560Z,13.32
2018-01-18T10:51:00.494Z,11.38
2018-01-18T10:53:29.538Z,7.53
2018-01-18T10:55:57.458Z,8.65
2018-01-18T10:58:25.370Z,13.05
2018-01-18T11:00:53.334Z,12.20
2018-01-18T11:03:21.253Z,13.25
2018-01-18T11:05:49.171Z,13.23
2018-01-18T11:08:17.111Z,10.25
2018-01-18T11:10:45.046Z,7.18
2018-01-18T11:13:12.955Z,11.43
2018-01-18T11:15:40.881Z,6.32
2018-01-18T11:18:08.967Z,10.25
2018-01-18T11:20:41.944Z,9.45
2018-01-18T11:23:09.832Z,10.57
2018-01-18T11:25:37.759Z,10.80
2018-01-18T11:28:08.244Z,16.48
2018-01-18T11:30:37.006Z,8.13
2018-01-18T11:33:04.925Z,14.60
2018-01-18T11:35:33.229Z,9.18
2018-01-18T11:38:01.299Z,11.73
2018-01-18T11:40:29.728Z,9.07
2018-01-18T11:42:57.632Z,8.00
2018-01-18T11:45:28.710Z,9.75
2018-01-18T11:47:56.697Z,10.77
2018-01-18T11:50:24.669Z,7.93
2018-01-18T11:52:52.573Z,2.70
2018-01-18T11:55:20.552Z,5.12
2018-01-18T11:57:48.588Z,3.30
2018-01-18T12:00:17.316Z,11.07
2018-01-18T12:02:45.369Z,7.28
2018-01-18T12:05:13.407Z,7.95
2018-01-18T12:07:41.356Z,2.60
2018-01-18T12:10:09.332Z,4.80
2018-01-18T12:12:37.406Z,4.62
2018-01-18T12:15:05.318Z,4.00
2018-01-18T12:17:33.304Z,3.17
2018-01-18T12:20:01.366Z,6.20
2018-01-18T12:22:30.153Z,6.87
2018-01-18T12:24:58.075Z,5.78
2018-01-18T12:27:26.149Z,3.25
2018-01-18T12:29:54.031Z,14.87
2018-01-18T12:32:23.743Z,5.00
2018-01-18T12:34:51.663Z,4.87
2018-01-18T12:37:19.626Z,5.75
2018-01-18T12:39:48.074Z,5.93
2018-01-18T12:42:16.109Z,9.52
2018-01-18T12:44:44.022Z,4.07
2018-01-18T12:47:11.938Z,3.78
2018-01-18T12:49:39.839Z,4.93
2018-01-18T12:52:07.844Z,2.00
2018-01-18T12:54:35.930Z,10.00
2018-01-18T12:57:11.513Z,5.35
2018-01-18T12:59:39.424Z,10.52
2018-01-18T13:02:08.124Z,5.07
2018-01-18T13:04:36.142Z,5.90
2018-01-18T13:07:04.058Z,5.30
2018-01-18T13:09:31.958Z,4.20
2018-01-18T13:11:59.836Z,6.15
2018-01-18T13:14:27.765Z,8.00
2018-01-18T13:16:55.804Z,6.28
2018-01-18T13:19:23.775Z,7.25
2018-01-18T13:21:51.642Z,7.53
2018-01-18T13:24:19.548Z,2.95
2018-01-18T13:26:51.380Z,8.43
2018-01-18T13:29:19.303Z,6.32
2018-01-18T13:31:47.223Z,5.12
2018-01-18T13:34:15.916Z,8.20
2018-01-18T13:36:44.597Z,4.25
2018-01-18T13:39:12.526Z,2.92
2018-01-18T13:41:40.405Z,6.28
2018-01-18T13:44:08.320Z,4.82
2018-01-18T13:46:36.219Z,4.22
2018-01-18T13:49:04.626Z,1.92
2018-01-18T13:51:32.507Z,4.28
2018-01-18T13:54:00.432Z,8.18
2018-01-18T13:56:31.962Z,8.07
2018-01-18T13:58:59.904Z,2.87
2018-01-18T14:01:27.799Z,4.43
2018-01-18T14:03:55.728Z,2.45
2018-01-18T14:06:23.644Z,2.05
2018-01-18T14:08:51.573Z,5.28
2018-01-18T14:11:19.474Z,4.43
2018-01-18T14:13:47.449Z,4.40
2018-01-18T14:16:15.368Z,4.68
2018-01-18T14:18:43.271Z,2.15
2018-01-18T14:21:11.988Z,5.03
2018-01-18T14:23:39.906Z,3.35
2018-01-18T14:26:07.839Z,2.60
2018-01-18T14:28:35.751Z,2.78
2018-01-18T14:31:03.718Z,1.58
2018-01-18T14:33:31.590Z,1.73
2018-01-18T14:35:59.516Z,1.80
2018-01-18T14:38:27.397Z,5.55
2018-01-18T14:40:55.323Z,2.67
2018-01-18T14:43:23.979Z,5.72
2018-01-18T14:45:51.900Z,2.87
2018-01-18T14:48:19.888Z,1.35
2018-01-18T14:50:47.804Z,2.75
2018-01-18T14:53:15.674Z,4.50
2018-01-18T14:55:44.372Z,0.82
2018-01-18T14:58:12.241Z,2.17
2018-01-18T15:00:40.936Z,8.20
2018-01-18T15:03:08.865Z,2.12
2018-01-18T15:05:36.804Z,2.83
2018-01-18T15:08:04.731Z,4.65
2018-01-18T15:10:33.413Z,3.62
2018-01-18T15:13:01.288Z,1.02
2018-01-18T15:15:29.993Z,4.30
2018-01-18T15:17:57.991Z,1.30
2018-01-18T15:20:25.845Z,1.95
2018-01-18T15:22:53.772Z,5.70
2018-01-18T15:25:22.407Z,1.83
2018-01-18T15:27:50.332Z,3.58
2018-01-18T15:30:19.039Z,2.47
2018-01-18T15:32:46.975Z,3.17
2018-01-18T15:35:15.634Z,4.97
2018-01-18T15:37:43.565Z,2.95
2018-01-18T15:40:11.435Z,5.40
2018-01-18T15:42:39.357Z,2.97
2018-01-18T15:45:07.239Z,3.05
2018-01-18T15:47:35.310Z,4.93
2018-01-18T15:50:03.245Z,6.65
2018-01-18T15:52:31.212Z,3.20
2018-01-18T15:54:59.091Z,2.70
2018-01-18T15:57:27.021Z,2.83
2018-01-18T15:59:54.899Z,1.75
2018-01-18T16:02:22.846Z,3.70
2018-01-18T16:04:50.717Z,4.50
2018-01-18T16:07:18.655Z,3.33
2018-01-18T16:09:46.592Z,2.15
2018-01-18T16:12:14.534Z,6.18
2018-01-18T16:14:42.416Z,7.32
2018-01-18T16:17:10.600Z,11.52
2018-01-18T16:19:38.492Z,5.25
2018-01-18T16:22:06.417Z,4.18
2018-01-18T16:24:34.274Z,5.70
2018-01-18T16:27:02.194Z,5.30
2018-01-18T16:29:30.106Z,6.10
2018-01-18T16:31:57.994Z,5.43
2018-01-18T16:34:25.957Z,8.88
2018-01-18T16:36:53.840Z,4.93
2018-01-18T16:39:21.764Z,4.60
2018-01-18T16:41:49.633Z,2.55
2018-01-18T16:44:17.556Z,3.87
2018-01-18T16:46:45.587Z,7.50
2018-01-18T16:49:14.341Z,5.93
2018-01-18T16:51:42.213Z,9.77
2018-01-18T16:54:10.707Z,2.78
2018-01-18T16:56:38.796Z,4.62
2018-01-18T16:59:06.802Z,5.47
2018-01-18T17:01:34.680Z,6.00
2018-01-18T17:04:02.714Z,8.00
2018-01-18T17:06:31.357Z,5.20
2018-01-18T17:08:59.579Z,4.85
2018-01-18T17:11:28.101Z,3.65
2018-01-18T17:13:56.659Z,2.47
2018-01-18T17:16:26.747Z,6.37
2018-01-18T17:18:55.476Z,9.85
2018-01-18T17:21:23.416Z,6.10
2018-01-18T17:23:51.633Z,4.15
2018-01-18T17:26:19.558Z,3.30
2018-01-18T17:28:47.484Z,1.87
2018-01-18T17:31:15.348Z,6.28
2018-01-18T17:33:43.279Z,3.58
2018-01-18T17:36:11.305Z,2.15
2018-01-18T17:38:39.185Z,6.87
2018-01-18T17:41:07.159Z,2.58
2018-01-18T17:43:35.992Z,4.70
2018-01-18T17:46:03.981Z,4.65
2018-01-18T17:48:31.866Z,11.63
2018-01-18T17:50:59.817Z,3.80
2018-01-18T17:53:27.758Z,4.03
2018-01-18T17:55:55.672Z,3.10
2018-01-18T17:58:23.528Z,2.20
2018-01-18T18:00:51.473Z,2.28
2018-01-18T18:03:19.345Z,4.57
2018-01-18T18:05:47.268Z,10.63
2018-01-18T18:08:16.393Z,4.60
2018-01-18T18:10:44.311Z,9.43
2018-01-18T18:13:12.187Z,8.02
2018-01-18T18:15:40.129Z,3.75
2018-01-18T18:18:07.994Z,5.30
2018-01-18T18:20:35.889Z,4.20
2018-01-18T18:23:03.775Z,2.35
2018-01-18T18:25:31.711Z,4.75
2018-01-18T18:27:59.639Z,3.65
2018-01-18T18:30:28.306Z,8.20
2018-01-18T18:32:56.166Z,7.15
2018-01-18T18:35:24.151Z,5.60
2018-01-18T18:37:52.885Z,5.45
2018-01-18T18:40:20.772Z,3.20
2018-01-18T18:42:48.696Z,5.65
2018-01-18T18:45:16.640Z,3.92
2018-01-18T18:47:44.573Z,6.97
2018-01-18T18:50:14.854Z,8.63
2018-01-18T18:52:43.363Z,7.00
2018-01-18T18:55:12.112Z,6.93
2018-01-18T18:57:40.843Z,7.57
2018-01-18T19:00:08.878Z,7.60
2018-01-18T19:02:37.647Z,5.97
2018-01-18T19:05:05.763Z,6.30
2018-01-18T19:07:37.441Z,8.43
2018-01-18T19:10:05.308Z,5.20
2018-01-18T19:12:33.259Z,4.70
2018-01-18T19:15:01.135Z,5.57
2018-01-18T19:17:29.046Z,3.40
2018-01-18T19:19:56.916Z,5.22
2018-01-18T19:22:24.864Z,5.45
2018-01-18T19:24:52.756Z,6.22
2018-01-18T19:27:20.724Z,3.50
2018-01-18T19:29:48.606Z,3.53
2018-01-18T19:32:16.543Z,4.93
2018-01-18T19:34:44.481Z,6.85
2018-01-18T19:37:12.431Z,3.70
2018-01-18T19:39:41.091Z,5.12
2018-01-18T19:42:09.063Z,7.53
2018-01-18T19:44:37.018Z,6.03
2018-01-18T19:47:04.886Z,5.32
2018-01-18T19:49:33.717Z,6.68
2018-01-18T19:52:02.368Z,4.93
2018-01-18T19:54:31.266Z,8.52
2018-01-18T19:56:59.146Z,7.87
2018-01-18T19:59:27.113Z,12.13
2018-01-18T20:01:55.075Z,6.32
2018-01-18T20:04:23.134Z,13.43
2018-01-18T20:06:51.100Z,12.02
2018-01-18T20:09:19.054Z,11.93
2018-01-18T20:11:46.928Z,14.50
2018-01-18T20:14:14.853Z,8.00
2018-01-18T20:16:43.875Z,9.48
2018-01-18T20:19:11.798Z,9.57
2018-01-18T20:21:39.878Z,7.12
2018-01-18T20:24:07.831Z,8.45
2018-01-18T20:26:36.007Z,12.32
2018-01-18T20:29:03.948Z,10.40
2018-01-18T20:31:31.822Z,13.85
2018-01-18T20:33:59.746Z,12.85
2018-01-18T20:36:27.702Z,12.93
2018-01-18T20:38:56.465Z,8.70
2018-01-18T20:41:24.360Z,9.90
2018-01-18T20:43:52.308Z,8.77
2018-01-18T20:46:20.277Z,13.93
2018-01-18T20:48:48.229Z,13.02
2018-01-18T20:51:17.516Z,6.10
2018-01-18T20:53:45.448Z,9.73
2018-01-18T20:56:14.096Z,7.60
2018-01-18T20:58:42.184Z,7.78
2018-01-18T21:01:10.143Z,8.38
2018-01-18T21:03:38.015Z,9.52
2018-01-18T21:06:06.203Z,5.70
2018-01-18T21:08:34.097Z,7.62
2018-01-18T21:11:01.998Z,6.37
2018-01-18T21:13:29.883Z,12.77
2018-01-18T21:15:57.816Z,7.05
2018-01-18T21:18:25.701Z,5.95
2018-01-18T21:20:53.637Z,6.95
2018-01-18T21:23:21.506Z,6.50
2018-01-18T21:25:49.427Z,7.35
2018-01-18T21:28:21.264Z,7.80
2018-01-18T21:30:49.174Z,5.85
2018-01-18T21:33:17.098Z,8.00
2018-01-18T21:35:45.018Z,8.90
2018-01-18T21:38:12.908Z,7.72
2018-01-18T21:40:40.840Z,7.35
2018-01-18T21:43:08.723Z,5.95
2018-01-18T21:45:36.659Z,8.10
2018-01-18T21:48:04.606Z,9.30
2018-01-18T21:50:32.563Z,6.85
2018-01-18T21:53:00.445Z,5.62
2018-01-18T21:55:28.467Z,12.35
2018-01-18T21:57:56.580Z,4.43
2018-01-18T22:00:24.528Z,4.30
2018-01-18T22:02:52.447Z,6.70
2018-01-18T22:05:20.337Z,4.60
2018-01-18T22:07:48.280Z,5.82
2018-01-18T22:10:16.155Z,3.83
2018-01-18T22:12:44.073Z,4.15
2018-01-18T22:15:12.737Z,3.15
2018-01-18T22:17:40.669Z,5.35
2018-01-18T22:20:08.553Z,6.57
2018-01-18T22:22:36.474Z,5.93
2018-01-18T22:25:04.362Z,3.40
2018-01-18T22:27:33.445Z,5.07
2018-01-18T22:30:01.394Z,5.65
2018-01-18T22:32:30.093Z,7.70
2018-01-18T22:34:57.986Z,4.82
2018-01-18T22:37:25.919Z,4.25
2018-01-18T22:39:53.854Z,5.18
2018-01-18T22:42:21.779Z,5.25
2018-01-18T22:44:49.714Z,4.95
2018-01-18T22:47:17.975Z,5.07
2018-01-18T22:49:45.859Z,5.18
2018-01-18T22:52:14.870Z,4.75
2018-01-18T22:54:43.624Z,4.97
2018-01-18T22:57:11.559Z,6.75
2018-01-18T22:59:39.433Z,4.18
2018-01-18T23:02:07.296Z,4.60
2018-01-18T23:04:35.211Z,4.97
2018-01-18T23:07:06.250Z,3.75
2018-01-18T23:09:34.191Z,4.70
2018-01-18T23:12:02.213Z,3.70
2018-01-18T23:14:30.185Z,5.60
2018-01-18T23:16:58.839Z,8.43
2018-01-18T23:19:26.759Z,3.45
2018-01-18T23:21:54.641Z,5.05
2018-01-18T23:24:23.347Z,7.00
2018-01-18T23:26:51.433Z,6.20
2018-01-18T23:29:19.377Z,6.30
2018-01-18T23:31:47.268Z,5.45
2018-01-18T23:34:15.239Z,6.80
2018-01-18T23:36:43.259Z,4.35
2018-01-18T23:39:11.217Z,7.25
2018-01-18T23:41:39.135Z,7.82
2018-01-18T23:44:07.133Z,4.30
2018-01-18T23:46:35.054Z,4.93
2018-01-18T23:49:03.885Z,6.87
2018-01-18T23:51:33.753Z,9.45
2018-01-18T23:54:03.659Z,5.72
2018-01-18T23:56:31.820Z,5.10
2018-01-18T23:59:00.579Z,7.82
